createdAt,value
2022-08-17T00:00:34.268Z,100406.13
2022-08-17T00:01:55.417Z,100404.77
2022-08-17T00:03:00.174Z,100398.02
2022-08-17T00:04:12.823Z,100402.92
2022-08-17T00:05:21.925Z,100401.98
2022-08-17T00:06:26.300Z,100404.15
2022-08-17T00:07:30.733Z,100402.08
2022-08-17T00:08:35.156Z,100404.77
2022-08-17T00:09:39.517Z,100407.7
2022-08-17T00:10:43.873Z,100410.5
2022-08-17T00:12:44.702Z,100402.92
2022-08-17T00:13:49.407Z,100408.33
2022-08-17T00:14:59.254Z,100415.48
2022-08-17T00:16:03.690Z,100418.59
2022-08-17T00:17:08.083Z,100419.45
2022-08-17T00:19:08.817Z,100420.05
2022-08-17T00:20:13.305Z,100420.98
2022-08-17T00:21:26.135Z,100424.22
2022-08-17T00:23:49.111Z,100422.55
2022-08-17T00:24:54.367Z,100426.16
2022-08-17T00:25:58.749Z,100427.52
2022-08-17T00:27:03.109Z,100428.98
2022-08-17T00:28:07.482Z,100421.3
2022-08-17T00:29:20.454Z,100424.41
2022-08-17T00:30:24.914Z,100419.94
2022-08-17T00:31:29.236Z,100427.52
2022-08-17T00:33:17.005Z,100416.7
2022-08-17T00:34:21.484Z,100416.83
2022-08-17T00:35:25.856Z,100424.5
2022-08-17T00:36:30.196Z,100415.89
2022-08-17T00:37:34.522Z,100418.69
2022-08-17T00:38:38.887Z,100415.58
2022-08-17T00:39:43.408Z,100415.77
2022-08-17T00:40:49.074Z,100420.98
2022-08-17T00:41:55.112Z,100416.39
2022-08-17T00:43:02.413Z,100416.52
2022-08-17T00:44:06.778Z,100413.81
2022-08-17T00:45:11.175Z,100409.23
2022-08-17T00:46:15.509Z,100410.9
2022-08-17T00:47:19.899Z,100415.16
2022-08-17T00:48:31.167Z,100421.38
2022-08-17T00:49:35.524Z,100420.13
2022-08-17T00:50:40.007Z,100421.07
2022-08-17T00:51:44.371Z,100406.63
2022-08-17T00:52:48.906Z,100414.72
2022-08-17T00:53:53.656Z,100413.81
2022-08-17T00:54:58.035Z,100414.22
2022-08-17T00:56:02.410Z,100413.37
2022-08-17T00:57:07.994Z,100416.83
2022-08-17T00:58:12.376Z,100416.08
2022-08-17T00:59:16.713Z,100415.58
2022-08-17T01:00:21.094Z,100412.02
2022-08-17T01:01:25.593Z,100416.61
2022-08-17T01:02:41.752Z,100414.41
2022-08-17T01:03:47.397Z,100414.62
2022-08-17T01:04:51.786Z,100411.92
2022-08-17T01:05:56.475Z,100410.76
2022-08-17T01:07:01.140Z,100409.41
2022-08-17T01:08:05.509Z,100411.61
2022-08-17T01:09:09.856Z,100412.02
2022-08-17T01:11:02.412Z,100402.16
2022-08-17T01:12:09.800Z,100406.2
2022-08-17T01:13:14.861Z,100406.2
2022-08-17T01:14:19.242Z,100411.2
2022-08-17T01:15:23.595Z,100407.97
2022-08-17T01:16:27.980Z,100411.7
2022-08-17T01:17:32.330Z,100411.7
2022-08-17T01:18:36.650Z,100410.88
2022-08-17T01:19:41.007Z,100406.92
2022-08-17T01:20:49.727Z,100407.34
2022-08-17T01:21:54.091Z,100404.84
2022-08-17T01:22:58.438Z,100411.39
2022-08-17T01:24:02.811Z,100408.78
2022-08-17T01:25:07.162Z,100404.84
2022-08-17T01:26:11.530Z,100406.8
2022-08-17T01:27:20.630Z,100411.6
2022-08-17T01:28:55.867Z,100415.43
2022-08-17T01:30:00.330Z,100407.33
2022-08-17T01:31:04.724Z,100406.38
2022-08-17T01:32:09.359Z,100407.23
2022-08-17T01:33:14.065Z,100410.84
2022-08-17T01:34:18.450Z,100405.45
2022-08-17T01:35:23.754Z,100404.84
2022-08-17T01:36:28.108Z,100405.35
2022-08-17T01:37:32.576Z,100406.7
2022-08-17T01:38:37.037Z,100410.44
2022-08-17T01:39:41.690Z,100411.06
2022-08-17T01:40:46.173Z,100402.11
2022-08-17T01:42:00.977Z,100401.51
2022-08-17T01:43:05.358Z,100407.73
2022-08-17T01:44:09.686Z,100405.97
2022-08-17T01:45:14.063Z,100405.97
2022-08-17T01:46:18.375Z,100404.21
2022-08-17T01:47:22.733Z,100407.41
2022-08-17T01:48:29.324Z,100404.39
2022-08-17T01:49:33.724Z,100406.59
2022-08-17T01:50:38.077Z,100405.24
2022-08-17T01:51:42.416Z,100407
2022-08-17T01:52:46.826Z,100401.38
2022-08-17T01:53:51.281Z,100403.67
2022-08-17T01:54:55.613Z,100399.53
2022-08-17T01:55:59.964Z,100402.73
2022-08-17T01:57:04.320Z,100399.72
2022-08-17T01:58:08.682Z,100402.01
2022-08-17T01:59:13.023Z,100400.75
2022-08-17T02:00:19.679Z,100395.26
2022-08-17T02:01:24.146Z,100402.42
2022-08-17T02:02:32.491Z,100407.55
2022-08-17T02:03:36.842Z,100403.06
2022-08-17T02:04:41.211Z,100406.52
2022-08-17T02:05:45.544Z,100408.37
2022-08-17T02:06:55.543Z,100406.2
2022-08-17T02:08:01.576Z,100407.23
2022-08-17T02:09:17.614Z,100396.39
2022-08-17T02:10:34.617Z,100399.8
2022-08-17T02:11:51.166Z,100398.26
2022-08-17T02:12:57.462Z,100397.94
2022-08-17T02:14:04.747Z,100394.8
2022-08-17T02:15:09.289Z,100397.5
2022-08-17T02:16:13.633Z,100393.89
2022-08-17T02:17:17.966Z,100393.14
2022-08-17T02:18:22.291Z,100393.26
2022-08-17T02:19:26.661Z,100394.17
2022-08-17T02:20:43.016Z,100398.66
2022-08-17T02:21:47.391Z,100395.33
2022-08-17T02:22:52.296Z,100390.56
2022-08-17T02:23:56.750Z,100390.75
2022-08-17T02:25:03.539Z,100393.05
2022-08-17T02:26:07.927Z,100387.14
2022-08-17T02:27:27.557Z,100387.64
2022-08-17T02:28:31.929Z,100385.35
2022-08-17T02:29:36.306Z,100386.61
2022-08-17T02:31:03.065Z,100383.91
2022-08-17T02:32:07.709Z,100382.65
2022-08-17T02:33:12.065Z,100385.47
2022-08-17T02:34:16.752Z,100385.35
2022-08-17T02:35:23.269Z,100387.73
2022-08-17T02:36:28.574Z,100384.12
2022-08-17T02:37:32.974Z,100381.52
2022-08-17T02:38:37.386Z,100385.25
2022-08-17T02:39:41.844Z,100388.98
2022-08-17T02:40:46.281Z,100388.98
2022-08-17T02:41:50.735Z,100388.45
2022-08-17T02:42:55.101Z,100387.42
2022-08-17T02:43:59.489Z,100385.87
2022-08-17T02:45:03.878Z,100384.52
2022-08-17T02:46:08.210Z,100389.48
2022-08-17T02:47:12.571Z,100390.83
2022-08-17T02:48:32.090Z,100387.23
2022-08-17T02:49:36.686Z,100383.77
2022-08-17T02:50:41.045Z,100381.51
2022-08-17T02:51:45.395Z,100388.26
2022-08-17T02:53:02.973Z,100387.94
2022-08-17T02:54:42.529Z,100391.05
2022-08-17T02:55:46.935Z,100388.44
2022-08-17T02:56:51.310Z,100392.17
2022-08-17T02:57:55.668Z,100391.77
2022-08-17T02:59:00.024Z,100391.14
2022-08-17T03:00:04.503Z,100392.17
2022-08-17T03:01:08.884Z,100391.14
2022-08-17T03:02:13.501Z,100391.67
2022-08-17T03:03:17.839Z,100395
2022-08-17T03:04:22.220Z,100396.91
2022-08-17T03:05:26.586Z,100400.64
2022-08-17T03:06:30.959Z,100394.66
2022-08-17T03:07:35.314Z,100402.31
2022-08-17T03:08:39.639Z,100393.89
2022-08-17T03:09:44.041Z,100399.42
2022-08-17T03:10:48.371Z,100389.97
2022-08-17T03:11:56.855Z,100395.36
2022-08-17T03:13:01.159Z,100392.34
2022-08-17T03:14:05.501Z,100394.61
2022-08-17T03:15:09.849Z,100395.55
2022-08-17T03:16:14.178Z,100402.71
2022-08-17T03:17:18.611Z,100399.09
2022-08-17T03:18:26.602Z,100401.89
2022-08-17T03:19:30.967Z,100397.84
2022-08-17T03:20:35.330Z,100399.69
2022-08-17T03:21:39.701Z,100399.81
2022-08-17T03:22:53.473Z,100398.03
2022-08-17T03:24:10.119Z,100404.69
2022-08-17T03:25:20.481Z,100403.86
2022-08-17T03:26:30.863Z,100400.22
2022-08-17T03:27:35.203Z,100407.59
2022-08-17T03:28:42.806Z,100404.89
2022-08-17T03:29:47.212Z,100408.95
2022-08-17T03:30:51.652Z,100411.65
2022-08-17T03:31:56.078Z,100410.8
2022-08-17T03:33:00.438Z,100411.2
2022-08-17T03:34:04.769Z,100407.59
2022-08-17T03:35:09.124Z,100410.7
2022-08-17T03:36:16.209Z,100409.36
2022-08-17T03:37:20.565Z,100408.41
2022-08-17T03:38:25.092Z,100412.88
2022-08-17T03:39:30.075Z,100407.91
2022-08-17T03:40:59.660Z,100411.52
2022-08-17T03:42:04.282Z,100412.69
2022-08-17T03:43:08.621Z,100414.77
2022-08-17T03:44:13.001Z,100416.44
2022-08-17T03:45:17.349Z,100411.35
2022-08-17T03:46:36.230Z,100413.9
2022-08-17T03:47:42.365Z,100415.81
2022-08-17T03:48:47.844Z,100413.95
2022-08-17T03:49:52.172Z,100419.7
2022-08-17T03:50:56.527Z,100416.59
2022-08-17T03:52:00.911Z,100424.7
2022-08-17T03:53:05.292Z,100428.41
2022-08-17T03:54:09.781Z,100421.16
2022-08-17T03:55:14.139Z,100425.52
2022-08-17T03:56:18.458Z,100420.44
2022-08-17T03:57:22.804Z,100424.58
2022-08-17T03:58:27.167Z,100426.55
2022-08-17T03:59:31.690Z,100427.9
2022-08-17T04:00:40.676Z,100431.02
2022-08-17T04:01:45.181Z,100427.46
2022-08-17T04:02:49.991Z,100429.44
2022-08-17T04:03:54.645Z,100428.09
2022-08-17T04:04:59.037Z,100430.78
2022-08-17T04:06:03.451Z,100423.09
2022-08-17T04:07:07.814Z,100434.3
2022-08-17T04:08:12.198Z,100427.96
2022-08-17T04:09:16.559Z,100436.5
2022-08-17T04:10:27.358Z,100435.56
2022-08-17T04:11:44.691Z,100435.5
2022-08-17T04:12:49.335Z,100439.02
2022-08-17T04:13:54.068Z,100437.05
2022-08-17T04:14:58.434Z,100435.7
2022-08-17T04:16:02.818Z,100438.3
2022-08-17T04:17:08.772Z,100434.98
2022-08-17T04:18:13.138Z,100438.41
2022-08-17T04:19:17.558Z,100442.9
2022-08-17T04:20:21.922Z,100441.74
2022-08-17T04:21:26.296Z,100442.91
2022-08-17T04:22:34.831Z,100442.38
2022-08-17T04:23:39.173Z,100448.7
2022-08-17T04:24:44.180Z,100451.48
2022-08-17T04:25:49.143Z,100448.92
2022-08-17T04:26:55.761Z,100448.58
2022-08-17T04:28:00.105Z,100448.44
2022-08-17T04:29:04.494Z,100446.67
2022-08-17T04:30:08.870Z,100448.95
2022-08-17T04:31:13.225Z,100451.41
2022-08-17T04:33:05.607Z,100451.99
2022-08-17T04:34:11.086Z,100453.63
2022-08-17T04:35:15.455Z,100449.03
2022-08-17T04:36:19.804Z,100453.52
2022-08-17T04:37:24.160Z,100447.36
2022-08-17T04:38:28.551Z,100451.22
2022-08-17T04:39:35.042Z,100453.92
2022-08-17T04:40:39.496Z,100461.06
2022-08-17T04:41:44.426Z,100460.67
2022-08-17T04:43:01.150Z,100454.94
2022-08-17T04:44:06.233Z,100460.02
2022-08-17T04:45:10.671Z,100457.66
2022-08-17T04:46:15.103Z,100454.56
2022-08-17T04:47:19.448Z,100459.34
2022-08-17T04:48:29.867Z,100460.45
2022-08-17T04:49:41.223Z,100462.52
2022-08-17T04:50:45.570Z,100461.8
2022-08-17T04:52:00.019Z,100458.67
2022-08-17T04:53:08.456Z,100466.48
2022-08-17T04:54:12.837Z,100458.69
2022-08-17T04:55:17.198Z,100461.17
2022-08-17T04:56:21.557Z,100462.2
2022-08-17T04:57:25.917Z,100466.77
2022-08-17T04:58:30.274Z,100464.06
2022-08-17T04:59:34.677Z,100463.23
2022-08-17T05:00:39.033Z,100469.48
2022-08-17T05:01:43.470Z,100464.49
2022-08-17T05:02:51.581Z,100463.36
2022-08-17T05:03:56.488Z,100462.83
2022-08-17T05:05:01.066Z,100467.83
2022-08-17T05:06:05.468Z,100473.95
2022-08-17T05:07:09.870Z,100464.73
2022-08-17T05:08:14.253Z,100470.67
2022-08-17T05:09:18.591Z,100467.74
2022-08-17T05:10:22.937Z,100470.87
2022-08-17T05:11:27.326Z,100465.77
2022-08-17T05:12:31.686Z,100463.23
2022-08-17T05:13:36.067Z,100461.56
2022-08-17T05:14:40.423Z,100465.13
2022-08-17T05:15:47.756Z,100469.2
2022-08-17T05:16:52.435Z,100467.65
2022-08-17T05:17:56.873Z,100471.88
2022-08-17T05:19:01.240Z,100470.95
2022-08-17T05:20:05.595Z,100473.55
2022-08-17T05:21:09.924Z,100473.66
2022-08-17T05:22:14.337Z,100474.51
2022-08-17T05:23:18.689Z,100477.3
2022-08-17T05:24:50.415Z,100474.19
2022-08-17T05:25:59.443Z,100473.66
2022-08-17T05:27:07.675Z,100472.95
2022-08-17T05:28:12.118Z,100475.53
2022-08-17T05:29:16.488Z,100479.17
2022-08-17T05:30:20.874Z,100474.09
2022-08-17T05:31:25.212Z,100483.42
2022-08-17T05:32:40.826Z,100476.59
2022-08-17T05:33:47.422Z,100475.14
2022-08-17T05:34:51.789Z,100478.89
2022-08-17T05:35:56.949Z,100471.01
2022-08-17T05:37:01.340Z,100472.55
2022-08-17T05:38:05.712Z,100471.44
2022-08-17T05:39:17.395Z,100471.83
2022-08-17T05:40:21.859Z,100475.38
2022-08-17T05:41:26.245Z,100479.03
2022-08-17T05:42:30.702Z,100484.04
2022-08-17T05:43:35.091Z,100478.95
2022-08-17T05:44:39.460Z,100477.08
2022-08-17T05:45:56.708Z,100483.52
2022-08-17T05:47:01.070Z,100482.91
2022-08-17T05:48:05.415Z,100485.1
2022-08-17T05:49:09.787Z,100473.68
2022-08-17T05:50:21.154Z,100490.61
2022-08-17T05:51:30.324Z,100481.92
2022-08-17T05:52:34.886Z,100480.03
2022-08-17T05:53:40.263Z,100485.84
2022-08-17T05:54:47.338Z,100482.55
2022-08-17T05:55:51.735Z,100472.98
2022-08-17T05:56:56.155Z,100475.59
2022-08-17T05:58:01.141Z,100479.64
2022-08-17T05:59:05.693Z,100481.94
2022-08-17T06:00:11.063Z,100481.31
2022-08-17T06:01:17.281Z,100471.77
2022-08-17T06:02:21.860Z,100474.06
2022-08-17T06:03:26.249Z,100474.47
2022-08-17T06:04:30.694Z,100475.82
2022-08-17T06:05:35.124Z,100471.45
2022-08-17T06:06:39.502Z,100470.1
2022-08-17T06:07:44.771Z,100475.41
2022-08-17T06:08:52.452Z,100470.83
2022-08-17T06:09:56.805Z,100477.4
2022-08-17T06:11:01.290Z,100473.12
2022-08-17T06:12:06.706Z,100478.52
2022-08-17T06:13:23.175Z,100477.49
2022-08-17T06:14:27.545Z,100484.03
2022-08-17T06:15:31.894Z,100473.66
2022-08-17T06:16:37.421Z,100476.69
2022-08-17T06:17:41.938Z,100483.66
2022-08-17T06:18:46.295Z,100480.96
2022-08-17T06:19:50.677Z,100484.1
2022-08-17T06:20:55.022Z,100488.3
2022-08-17T06:21:59.424Z,100486.14
2022-08-17T06:23:03.789Z,100483.75
2022-08-17T06:24:08.165Z,100480.55
2022-08-17T06:25:12.593Z,100482.81
2022-08-17T06:26:16.969Z,100484.78
2022-08-17T06:27:21.338Z,100481.05
2022-08-17T06:28:25.692Z,100482.31
2022-08-17T06:29:30.067Z,100487.63
2022-08-17T06:31:01.624Z,100490.73
2022-08-17T06:32:05.984Z,100500.59
2022-08-17T06:33:10.368Z,100504.64
2022-08-17T06:34:14.757Z,100499.56
2022-08-17T06:35:19.134Z,100502.8
2022-08-17T06:36:25.957Z,100498.84
2022-08-17T06:37:30.374Z,100494.6
2022-08-17T06:38:39.427Z,100496.36
2022-08-17T06:39:43.875Z,100503.52
2022-08-17T06:40:48.395Z,100500.32
2022-08-17T06:41:52.771Z,100498.44
2022-08-17T06:43:07.842Z,100498.13
2022-08-17T06:44:50.454Z,100494.09
2022-08-17T06:45:55.562Z,100496.38
2022-08-17T06:46:59.906Z,100496.28
2022-08-17T06:48:04.303Z,100499.61
2022-08-17T06:49:08.665Z,100498.05
2022-08-17T06:50:13.004Z,100501.69
2022-08-17T06:51:17.368Z,100497.02
2022-08-17T06:52:48.256Z,100506.46
2022-08-17T06:53:52.734Z,100500.97
2022-08-17T06:54:57.673Z,100501.69
2022-08-17T06:56:02.044Z,100501.87
2022-08-17T06:57:06.396Z,100504.56
2022-08-17T06:58:17.659Z,100509.06
2022-08-17T06:59:21.996Z,100511.64
2022-08-17T07:00:26.412Z,100509.15
2022-08-17T07:01:31.179Z,100510.5
2022-08-17T07:02:53.612Z,100503.45
2022-08-17T07:03:57.982Z,100501.16
2022-08-17T07:05:08.498Z,100509.16
2022-08-17T07:06:12.874Z,100511.24
2022-08-17T07:07:17.257Z,100498.18
2022-08-17T07:08:23.407Z,100503.14
2022-08-17T07:09:35.357Z,100505.66
2022-08-17T07:10:39.749Z,100511.05
2022-08-17T07:11:44.100Z,100500.24
2022-08-17T07:12:48.678Z,100499
2022-08-17T07:13:53.378Z,100500.26
2022-08-17T07:14:57.739Z,100498.81
2022-08-17T07:16:02.105Z,100503.19
2022-08-17T07:17:06.449Z,100510.03
2022-08-17T07:18:10.850Z,100507.02
2022-08-17T07:19:15.220Z,100508.13
2022-08-17T07:20:19.575Z,100511.24
2022-08-17T07:21:27.714Z,100514.17
2022-08-17T07:23:00.339Z,100506.48
2022-08-17T07:24:04.966Z,100513.81
2022-08-17T07:25:09.349Z,100508.81
2022-08-17T07:26:19.321Z,100517.02
2022-08-17T07:27:23.689Z,100506.23
2022-08-17T07:28:28.088Z,100514.97
2022-08-17T07:29:32.476Z,100511.87
2022-08-17T07:30:47.923Z,100513.55
2022-08-17T07:31:52.287Z,100525.06
2022-08-17T07:32:58.974Z,100517.36
2022-08-17T07:34:03.365Z,100516.64
2022-08-17T07:35:11.741Z,100519.02
2022-08-17T07:36:18.667Z,100521.23
2022-08-17T07:37:23.055Z,100519.02
2022-08-17T07:38:28.185Z,100527.45
2022-08-17T07:39:32.747Z,100526.14
2022-08-17T07:40:37.312Z,100517.91
2022-08-17T07:41:59.915Z,100524.66
2022-08-17T07:43:05.964Z,100516.53
2022-08-17T07:44:10.331Z,100523.7
2022-08-17T07:45:14.781Z,100529.02
2022-08-17T07:46:19.124Z,100527.77
2022-08-17T07:47:23.488Z,100527.77
2022-08-17T07:48:27.898Z,100527.81
2022-08-17T07:49:32.737Z,100528.54
2022-08-17T07:50:38.178Z,100529.58
2022-08-17T07:51:42.530Z,100531.34
2022-08-17T07:52:52.690Z,100531.98
2022-08-17T07:54:14.909Z,100528.16
2022-08-17T07:55:19.452Z,100525.05
2022-08-17T07:56:23.824Z,100530.64
2022-08-17T07:57:38.937Z,100525.24
2022-08-17T07:58:43.302Z,100522.45
2022-08-17T07:59:48.070Z,100522.86
2022-08-17T08:00:54.766Z,100514.75
2022-08-17T08:02:01.848Z,100520.59
2022-08-17T08:03:10.331Z,100522.53
2022-08-17T08:04:25.883Z,100520.47
2022-08-17T08:06:13.569Z,100522.86
2022-08-17T08:07:17.920Z,100513.45
2022-08-17T08:08:22.267Z,100514.27
2022-08-17T08:09:29.467Z,100513.33
2022-08-17T08:10:33.836Z,100513.23
2022-08-17T08:11:44.392Z,100506.8
2022-08-17T08:12:48.856Z,100512.61
2022-08-17T08:13:58.047Z,100509.81
2022-08-17T08:15:02.410Z,100510.55
2022-08-17T08:16:06.750Z,100512.02
2022-08-17T08:17:11.100Z,100508.28
2022-08-17T08:18:55.144Z,100512.66
2022-08-17T08:20:51.572Z,100509.02
2022-08-17T08:21:57.445Z,100515.45
2022-08-17T08:23:01.782Z,100512.21
2022-08-17T08:24:06.139Z,100512.44
2022-08-17T08:25:10.489Z,100513.79
2022-08-17T08:26:19.443Z,100513.58
2022-08-17T08:27:23.820Z,100512.77
2022-08-17T08:28:28.151Z,100508.71
2022-08-17T08:29:32.518Z,100507.77
2022-08-17T08:30:36.866Z,100518.7
2022-08-17T08:31:43.554Z,100510.59
2022-08-17T08:32:48.409Z,100514.52
2022-08-17T08:33:54.712Z,100510.29
2022-08-17T08:35:03.950Z,100515.28
2022-08-17T08:36:08.468Z,100513.94
2022-08-17T08:37:27.595Z,100514.67
2022-08-17T08:38:42.438Z,100514.98
2022-08-17T08:39:46.968Z,100519.36
2022-08-17T08:40:51.442Z,100514.67
2022-08-17T08:41:55.807Z,100517.38
2022-08-17T08:43:00.171Z,100516.34
2022-08-17T08:44:04.535Z,100517.06
2022-08-17T08:45:08.891Z,100513.33
2022-08-17T08:46:13.247Z,100515.12
2022-08-17T08:47:23.019Z,100509.4
2022-08-17T08:48:57.926Z,100511.56
2022-08-17T08:50:39.098Z,100511.16
2022-08-17T08:51:43.487Z,100503.45
2022-08-17T08:52:48.429Z,100503.69
2022-08-17T08:53:52.825Z,100504
2022-08-17T08:54:57.165Z,100514.69
2022-08-17T08:56:01.516Z,100507.52
2022-08-17T08:57:33.007Z,100508.05
2022-08-17T08:58:43.272Z,100500.77
2022-08-17T08:59:59.046Z,100506.08
2022-08-17T09:01:03.525Z,100506.39
2022-08-17T09:02:07.977Z,100500.14
2022-08-17T09:03:12.355Z,100501.3
2022-08-17T09:04:25.997Z,100502.66
2022-08-17T09:05:30.420Z,100501.53
2022-08-17T09:06:40.521Z,100499.02
2022-08-17T09:07:45.014Z,100502.98
2022-08-17T09:08:49.524Z,100501.95
2022-08-17T09:09:59.422Z,100500.09
2022-08-17T09:11:03.893Z,100498.84
2022-08-17T09:12:08.276Z,100509.33
2022-08-17T09:13:12.691Z,100495.41
2022-08-17T09:14:28.555Z,100501.22
2022-08-17T09:15:39.928Z,100497.7
2022-08-17T09:16:44.300Z,100501.55
2022-08-17T09:17:48.722Z,100501.27
2022-08-17T09:19:07.271Z,100497.84
2022-08-17T09:20:27.281Z,100503.56
2022-08-17T09:21:35.032Z,100494.83
2022-08-17T09:22:49.093Z,100494.95
2022-08-17T09:23:53.486Z,100497.66
2022-08-17T09:24:57.886Z,100501.18
2022-08-17T09:26:02.257Z,100497.66
2022-08-17T09:27:06.618Z,100497.44
2022-08-17T09:28:11.029Z,100501.49
2022-08-17T09:29:15.452Z,100496.72
2022-08-17T09:30:19.814Z,100492.57
2022-08-17T09:31:33.425Z,100498.92
2022-08-17T09:32:49.723Z,100490.91
2022-08-17T09:33:54.124Z,100494.11
2022-08-17T09:34:58.558Z,100497.66
2022-08-17T09:36:02.926Z,100486.31
2022-08-17T09:37:07.366Z,100490.91
2022-08-17T09:38:11.774Z,100492.39
2022-08-17T09:39:16.174Z,100489.06
2022-08-17T09:40:20.741Z,100491.98
2022-08-17T09:41:25.214Z,100490.09
2022-08-17T09:42:29.584Z,100489.88
2022-08-17T09:43:33.958Z,100488.44
2022-08-17T09:44:38.347Z,100485.82
2022-08-17T09:45:42.708Z,100480.13
2022-08-17T09:46:47.121Z,100483.75
2022-08-17T09:47:51.988Z,100481.17
2022-08-17T09:48:56.659Z,100476.89
2022-08-17T09:50:01.020Z,100482.52
2022-08-17T09:51:07.693Z,100480.73
2022-08-17T09:52:12.094Z,100478.16
2022-08-17T09:53:16.459Z,100475.95
2022-08-17T09:54:40.460Z,100472.84
2022-08-17T09:55:45.037Z,100476.8
2022-08-17T09:57:28.400Z,100473.66
2022-08-17T09:58:35.021Z,100478.56
2022-08-17T09:59:42.870Z,100478.02
2022-08-17T10:00:49.493Z,100480.27
2022-08-17T10:01:53.959Z,100477.24
2022-08-17T10:02:58.314Z,100483.88
2022-08-17T10:04:02.665Z,100480.89
2022-08-17T10:05:07.071Z,100480.45
2022-08-17T10:06:11.429Z,100478.38
2022-08-17T10:07:15.777Z,100486.89
2022-08-17T10:08:22.900Z,100485.55
2022-08-17T10:09:27.833Z,100482.94
2022-08-17T10:10:33.526Z,100485.55
2022-08-17T10:11:48.233Z,100487.43
2022-08-17T10:12:54.654Z,100489.06
2022-08-17T10:14:00.648Z,100486.58
2022-08-17T10:15:41.700Z,100491.45
2022-08-17T10:16:46.832Z,100488.44
2022-08-17T10:17:51.705Z,100485.41
2022-08-17T10:18:56.135Z,100489.47
2022-08-17T10:20:00.503Z,100487.3
2022-08-17T10:21:04.863Z,100488.11
2022-08-17T10:22:38.075Z,100485.09
2022-08-17T10:23:43.361Z,100483.34
2022-08-17T10:25:27.845Z,100485.41
2022-08-17T10:26:58.435Z,100483.66
2022-08-17T10:28:02.889Z,100478.88
2022-08-17T10:29:07.290Z,100479.19
2022-08-17T10:30:13.415Z,100484.59
2022-08-17T10:31:36.314Z,100481.77
2022-08-17T10:32:40.773Z,100480.23
2022-08-17T10:33:45.162Z,100483.12
2022-08-17T10:34:49.516Z,100485.54
2022-08-17T10:35:58.204Z,100488.53
2022-08-17T10:37:02.628Z,100484.91
2022-08-17T10:38:07.067Z,100492.17
2022-08-17T10:39:11.442Z,100488.56
2022-08-17T10:40:16.108Z,100490.86
2022-08-17T10:41:20.652Z,100488.03
2022-08-17T10:42:33.789Z,100492.61
2022-08-17T10:43:38.169Z,100491.36
2022-08-17T10:44:42.752Z,100491.67
2022-08-17T10:45:48.046Z,100492.8
2022-08-17T10:47:12.659Z,100492.17
2022-08-17T10:48:16.995Z,100492.39
2022-08-17T10:49:21.383Z,100490.82
2022-08-17T10:50:25.721Z,100495.6
2022-08-17T10:51:30.108Z,100491.45
2022-08-17T10:52:34.457Z,100485.86
2022-08-17T10:53:41.433Z,100493.88
2022-08-17T10:54:45.806Z,100492.62
2022-08-17T10:55:50.199Z,100496.77
2022-08-17T10:56:54.556Z,100499.25
2022-08-17T10:57:58.932Z,100502.8
2022-08-17T10:59:03.289Z,100497.08
2022-08-17T11:00:07.648Z,100498.84
2022-08-17T11:01:12.086Z,100494.16
2022-08-17T11:02:16.693Z,100496.55
2022-08-17T11:03:21.012Z,100490.73
2022-08-17T11:04:26.228Z,100491.14
2022-08-17T11:05:30.599Z,100490.23
2022-08-17T11:06:34.962Z,100491.45
2022-08-17T11:07:39.327Z,100491.27
2022-08-17T11:08:44.260Z,100489.06
2022-08-17T11:09:48.628Z,100487.52
2022-08-17T11:10:53.503Z,100489.38
2022-08-17T11:11:57.975Z,100483.78
2022-08-17T11:13:02.458Z,100490.63
2022-08-17T11:14:10.191Z,100483.88
2022-08-17T11:15:14.652Z,100493.02
2022-08-17T11:16:19.201Z,100489.7
2022-08-17T11:17:24.246Z,100492.21
2022-08-17T11:18:28.623Z,100486.39
2022-08-17T11:19:32.970Z,100484.19
2022-08-17T11:20:37.330Z,100493.56
2022-08-17T11:21:41.809Z,100486.48
2022-08-17T11:22:46.326Z,100490.23
2022-08-17T11:23:50.777Z,100488.78
2022-08-17T11:24:55.152Z,100488.19
2022-08-17T11:25:59.490Z,100489.76
2022-08-17T11:27:03.873Z,100489.63
2022-08-17T11:28:08.236Z,100493.78
2022-08-17T11:29:12.621Z,100492.3
2022-08-17T11:30:27.606Z,100487.3
2022-08-17T11:31:40.487Z,100484.05
2022-08-17T11:32:53.134Z,100488.92
2022-08-17T11:33:59.958Z,100481.75
2022-08-17T11:35:04.371Z,100477.48
2022-08-17T11:36:08.752Z,100474.77
2022-08-17T11:37:13.145Z,100478.61
2022-08-17T11:38:17.882Z,100472.79
2022-08-17T11:39:22.259Z,100472.03
2022-08-17T11:40:27.597Z,100473.33
2022-08-17T11:41:32.174Z,100470.27
2022-08-17T11:42:36.658Z,100465.72
2022-08-17T11:43:43.922Z,100463.7
2022-08-17T11:44:48.255Z,100466
2022-08-17T11:45:52.625Z,100466.72
2022-08-17T11:46:56.962Z,100466.81
2022-08-17T11:48:29.089Z,100460.91
2022-08-17T11:49:34.149Z,100455.91
2022-08-17T11:50:38.538Z,100454.14
2022-08-17T11:51:42.896Z,100456.09
2022-08-17T11:52:48.065Z,100454.23
2022-08-17T11:54:31.460Z,100452.04
2022-08-17T11:55:44.900Z,100463.06
2022-08-17T11:56:49.388Z,100459.02
2022-08-17T11:57:53.729Z,100461.41
2022-08-17T11:58:58.084Z,100464.42
2022-08-17T12:00:02.455Z,100462.66
2022-08-17T12:01:07.207Z,100459.95
2022-08-17T12:02:11.649Z,100460.77
2022-08-17T12:03:16.125Z,100458.16
2022-08-17T12:04:20.765Z,100452.26
2022-08-17T12:05:25.168Z,100454.11
2022-08-17T12:06:31.787Z,100452.88
2022-08-17T12:07:36.199Z,100451.09
2022-08-17T12:08:43.525Z,100454.02
2022-08-17T12:09:47.901Z,100457.03
2022-08-17T12:10:52.254Z,100448.61
2022-08-17T12:12:14.847Z,100448.61
2022-08-17T12:13:19.427Z,100453.39
2022-08-17T12:15:08.763Z,100447.89
2022-08-17T12:16:15.568Z,100453.3
2022-08-17T12:17:42.803Z,100447.17
2022-08-17T12:18:47.484Z,100449.34
2022-08-17T12:19:51.811Z,100447.8
2022-08-17T12:20:59.275Z,100449.38
2022-08-17T12:22:03.626Z,100447.89
2022-08-17T12:23:07.982Z,100450
2022-08-17T12:24:12.366Z,100446.7
2022-08-17T12:25:16.736Z,100450.54
2022-08-17T12:26:21.081Z,100444.31
2022-08-17T12:28:07.766Z,100445.36
2022-08-17T12:29:38.980Z,100438.19
2022-08-17T12:30:43.654Z,100440.27
2022-08-17T12:31:48.001Z,100445.13
2022-08-17T12:32:52.387Z,100444.95
2022-08-17T12:33:56.738Z,100449.95
2022-08-17T12:35:01.108Z,100453.69
2022-08-17T12:36:05.490Z,100451.7
2022-08-17T12:37:09.833Z,100448.78
2022-08-17T12:38:33.819Z,100452.74
2022-08-17T12:39:38.607Z,100452.74
2022-08-17T12:40:44.011Z,100457.74
2022-08-17T12:41:48.396Z,100458.56
2022-08-17T12:42:54.669Z,100461.17
2022-08-17T12:43:59.056Z,100458.56
2022-08-17T12:45:03.432Z,100459.5
2022-08-17T12:46:15.977Z,100459.5
2022-08-17T12:47:24.017Z,100456.39
2022-08-17T12:48:32.802Z,100452.34
2022-08-17T12:49:37.255Z,100456.8
2022-08-17T12:50:41.609Z,100456.39
2022-08-17T12:51:45.966Z,100456.89
2022-08-17T12:52:50.982Z,100459.09
2022-08-17T12:54:05.118Z,100455.03